createdAt,value
2018-04-15T00:00:09.650Z,89.03
2018-04-15T00:01:09.803Z,89.40
2018-04-15T00:02:09.957Z,89.69
2018-04-15T00:03:10.108Z,89.40
2018-04-15T00:04:10.260Z,89.40
2018-04-15T00:05:10.411Z,89.69
2018-04-15T00:06:10.560Z,90.08
2018-04-15T00:07:10.716Z,89.40
2018-04-15T00:08:10.864Z,89.12
2018-04-15T00:09:11.015Z,89.12
2018-04-15T00:10:11.166Z,89.22
2018-04-15T00:11:11.318Z,88.84
2018-04-15T00:12:11.470Z,88.55
2018-04-15T00:13:11.620Z,88.64
2018-04-15T00:14:11.765Z,88.64
2018-04-15T00:15:11.915Z,88.64
2018-04-15T00:16:12.065Z,88.26
2018-04-15T00:17:12.217Z,87.88
2018-04-15T00:18:12.365Z,87.79
2018-04-15T00:19:12.520Z,87.69
2018-04-15T00:20:12.671Z,87.88
2018-04-15T00:21:12.823Z,88.07
2018-04-15T00:22:12.974Z,87.40
2018-04-15T00:23:13.125Z,87.98
2018-04-15T00:24:13.275Z,88.17
2018-04-15T00:25:13.426Z,88.45
2018-04-15T00:26:13.578Z,88.55
2018-04-15T00:27:13.734Z,88.36
2018-04-15T00:28:13.881Z,88.45
2018-04-15T00:29:14.033Z,88.64
2018-04-15T00:30:14.182Z,88.17
2018-04-15T00:31:14.338Z,88.64
2018-04-15T00:32:14.491Z,89.12
2018-04-15T00:33:14.639Z,89.31
2018-04-15T00:34:14.790Z,89.03
2018-04-15T00:35:14.946Z,89.12
2018-04-15T00:36:15.094Z,89.31
2018-04-15T00:37:15.245Z,89.12
2018-04-15T00:38:15.397Z,88.93
2018-04-15T00:39:15.545Z,88.45
2018-04-15T00:40:15.699Z,88.74
2018-04-15T00:41:15.845Z,88.64
2018-04-15T00:42:15.996Z,88.64
2018-04-15T00:43:16.148Z,87.93
2018-04-15T00:44:16.300Z,88.17
2018-04-15T00:45:16.450Z,87.93
2018-04-15T00:46:16.604Z,87.74
2018-04-15T00:47:16.750Z,88.02
2018-04-15T00:48:16.902Z,87.74
2018-04-15T00:49:17.054Z,87.79
2018-04-15T00:50:17.202Z,88.55
2018-04-15T00:51:17.353Z,88.55
2018-04-15T00:52:17.506Z,88.93
2018-04-15T00:53:17.655Z,88.74
2018-04-15T00:54:17.806Z,89.12
2018-04-15T00:55:17.956Z,89.69
2018-04-15T00:56:18.109Z,89.31
2018-04-15T00:57:18.259Z,89.69
2018-04-15T00:58:18.413Z,90.26
2018-04-15T00:59:18.564Z,90.26
2018-04-15T01:00:18.717Z,90.26
2018-04-15T01:01:18.863Z,90.64
2018-04-15T01:02:19.018Z,90.45
2018-04-15T01:03:19.165Z,90.60
2018-04-15T01:04:19.319Z,90.08
2018-04-15T01:05:19.468Z,89.89
2018-04-15T01:06:19.620Z,90.26
2018-04-15T01:07:19.772Z,89.79
2018-04-15T01:08:19.922Z,89.89
2018-04-15T01:09:20.073Z,89.22
2018-04-15T01:10:20.222Z,89.31
2018-04-15T01:11:20.374Z,89.31
2018-04-15T01:12:20.523Z,89.40
2018-04-15T01:13:20.677Z,89.40
2018-04-15T01:14:20.827Z,89.69
2018-04-15T01:15:20.980Z,88.93
2018-04-15T01:16:21.131Z,88.93
2018-04-15T01:17:21.280Z,88.93
2018-04-15T01:18:21.432Z,89.69
2018-04-15T01:19:21.582Z,89.89
2018-04-15T01:20:21.728Z,89.60
2018-04-15T01:21:21.882Z,89.98
2018-04-15T01:22:22.034Z,90.60
2018-04-15T01:23:22.184Z,90.60
2018-04-15T01:24:22.334Z,90.26
2018-04-15T01:25:22.486Z,90.12
2018-04-15T01:26:22.637Z,90.12
2018-04-15T01:27:22.792Z,90.26
2018-04-15T01:28:22.941Z,90.41
2018-04-15T01:29:23.092Z,90.41
2018-04-15T01:30:23.243Z,90.60
2018-04-15T01:31:23.394Z,90.89
2018-04-15T01:32:23.545Z,90.79
2018-04-15T01:33:23.697Z,90.60
2018-04-15T01:34:23.850Z,90.31
2018-04-15T01:35:24.001Z,90.45
2018-04-15T01:36:24.156Z,89.98
2018-04-15T01:37:24.309Z,89.89
2018-04-15T01:38:24.459Z,90.17
2018-04-15T01:39:24.609Z,90.08
2018-04-15T01:40:24.760Z,90.08
2018-04-15T01:41:24.913Z,90.26
2018-04-15T01:42:25.060Z,89.89
2018-04-15T01:43:25.213Z,89.79
2018-04-15T01:44:25.362Z,89.22
2018-04-15T01:45:25.512Z,89.50
2018-04-15T01:46:25.663Z,89.60
2018-04-15T01:47:25.818Z,89.31
2018-04-15T01:48:25.968Z,89.60
2018-04-15T01:49:26.121Z,89.12
2018-04-15T01:50:26.269Z,90.08
2018-04-15T01:51:26.421Z,90.26
2018-04-15T01:52:26.570Z,90.17
2018-04-15T01:53:26.722Z,89.89
2018-04-15T01:54:26.873Z,89.40
2018-04-15T01:55:27.024Z,89.89
2018-04-15T01:56:27.176Z,89.94
2018-04-15T01:57:27.325Z,90.12
2018-04-15T01:58:27.477Z,89.75
2018-04-15T01:59:27.629Z,90.12
2018-04-15T02:00:27.782Z,90.41
2018-04-15T02:01:27.931Z,90.70
2018-04-15T02:02:28.080Z,90.98
2018-04-15T02:03:28.236Z,90.31
2018-04-15T02:04:28.383Z,90.89
2018-04-15T02:05:28.535Z,90.41
2018-04-15T02:06:28.686Z,90.31
2018-04-15T02:07:28.837Z,90.70
2018-04-15T02:08:28.988Z,90.50
2018-04-15T02:09:29.136Z,90.31
2018-04-15T02:10:29.290Z,90.60
2018-04-15T02:11:29.441Z,90.50
2018-04-15T02:12:29.591Z,90.31
2018-04-15T02:13:29.743Z,90.17
2018-04-15T02:14:29.895Z,90.03
2018-04-15T02:15:30.052Z,89.79
2018-04-15T02:16:30.200Z,90.17
2018-04-15T02:17:30.348Z,89.50
2018-04-15T02:18:30.503Z,89.31
2018-04-15T02:19:30.653Z,89.40
2018-04-15T02:20:30.803Z,88.84
2018-04-15T02:21:30.953Z,89.69
2018-04-15T02:22:31.106Z,89.12
2018-04-15T02:23:31.258Z,89.22
2018-04-15T02:24:31.410Z,89.50
2018-04-15T02:25:31.561Z,89.69
2018-04-15T02:26:31.712Z,89.40
2018-04-15T02:27:31.861Z,89.31
2018-04-15T02:28:32.013Z,89.60
2018-04-15T02:29:32.164Z,89.60
2018-04-15T02:30:32.313Z,89.50
2018-04-15T02:31:32.461Z,89.69
2018-04-15T02:32:32.614Z,89.69
2018-04-15T02:33:32.765Z,89.31
2018-04-15T02:34:32.916Z,89.60
2018-04-15T02:35:33.073Z,89.79
2018-04-15T02:36:33.218Z,89.22
2018-04-15T02:37:33.370Z,89.50
2018-04-15T02:38:33.518Z,90.12
2018-04-15T02:39:33.669Z,89.75
2018-04-15T02:40:33.822Z,90.50
2018-04-15T02:41:33.972Z,90.89
2018-04-15T02:42:34.123Z,90.98
2018-04-15T02:43:34.272Z,90.79
2018-04-15T02:44:34.420Z,90.79
2018-04-15T02:45:34.569Z,90.22
2018-04-15T02:46:34.720Z,90.50
2018-04-15T02:47:34.872Z,90.89
2018-04-15T02:48:35.031Z,91.36
2018-04-15T02:49:35.176Z,91.84
2018-04-15T02:50:35.326Z,92.32
2018-04-15T02:51:35.476Z,92.65
2018-04-15T02:52:35.617Z,93.13
2018-04-15T02:53:35.765Z,93.13
2018-04-15T02:54:35.917Z,92.94
2018-04-15T02:55:36.066Z,92.74
2018-04-15T02:56:36.221Z,93.03
2018-04-15T02:57:36.366Z,93.32
2018-04-15T02:58:36.522Z,93.32
2018-04-15T02:59:36.671Z,92.65
2018-04-15T03:00:36.823Z,92.79
2018-04-15T03:01:36.974Z,92.13
2018-04-15T03:02:37.157Z,92.22
2018-04-15T03:03:37.305Z,91.84
2018-04-15T03:04:37.457Z,92.27
2018-04-15T03:05:37.606Z,91.99
2018-04-15T03:06:37.756Z,92.03
2018-04-15T03:07:37.907Z,92.27
2018-04-15T03:08:38.059Z,92.08
2018-04-15T03:09:38.209Z,91.79
2018-04-15T03:10:38.361Z,92.22
2018-04-15T03:11:38.510Z,92.13
2018-04-15T03:12:38.662Z,92.22
2018-04-15T03:13:38.810Z,91.55
2018-04-15T03:14:38.972Z,91.27
2018-04-15T03:15:39.110Z,91.55
2018-04-15T03:16:39.260Z,92.13
2018-04-15T03:17:39.409Z,92.22
2018-04-15T03:18:39.561Z,92.22
2018-04-15T03:19:39.709Z,92.84
2018-04-15T03:20:39.859Z,92.65
2018-04-15T03:21:40.011Z,92.55
2018-04-15T03:22:40.163Z,92.65
2018-04-15T03:23:40.310Z,93.22
2018-04-15T03:24:40.461Z,92.55
2018-04-15T03:25:40.611Z,92.84
2018-04-15T03:26:40.760Z,93.51
2018-04-15T03:27:40.912Z,93.13
2018-04-15T03:28:41.060Z,93.98
2018-04-15T03:29:41.210Z,93.79
2018-04-15T03:30:41.359Z,93.51
2018-04-15T03:31:41.509Z,93.79
2018-04-15T03:32:41.658Z,93.89
2018-04-15T03:33:41.811Z,93.32
2018-04-15T03:34:41.960Z,93.22
2018-04-15T03:35:42.112Z,93.03
2018-04-15T03:36:42.263Z,93.41
2018-04-15T03:37:42.414Z,93.41
2018-04-15T03:38:42.567Z,93.60
2018-04-15T03:39:42.716Z,93.41
2018-04-15T03:40:42.865Z,93.60
2018-04-15T03:41:43.060Z,93.32
2018-04-15T03:42:43.166Z,93.51
2018-04-15T03:43:43.315Z,93.41
2018-04-15T03:44:43.463Z,93.51
2018-04-15T03:45:43.616Z,94.08
2018-04-15T03:46:43.763Z,93.08
2018-04-15T03:47:43.913Z,93.60
2018-04-15T03:48:44.065Z,93.32
2018-04-15T03:49:44.213Z,93.51
2018-04-15T03:50:44.366Z,93.51
2018-04-15T03:51:44.519Z,92.94
2018-04-15T03:52:44.671Z,93.41
2018-04-15T03:53:44.819Z,93.32
2018-04-15T03:54:44.973Z,93.51
2018-04-15T03:55:45.122Z,93.13
2018-04-15T03:56:45.271Z,93.13
2018-04-15T03:57:45.420Z,93.32
2018-04-15T03:58:45.566Z,93.41
2018-04-15T03:59:45.720Z,93.60
2018-04-15T04:00:45.870Z,93.41
2018-04-15T04:01:46.027Z,94.08
2018-04-15T04:02:46.173Z,94.27
2018-04-15T04:03:46.325Z,94.27
2018-04-15T04:04:46.471Z,94.27
2018-04-15T04:05:46.627Z,93.60
2018-04-15T04:06:46.773Z,93.51
2018-04-15T04:07:46.924Z,93.51
2018-04-15T04:08:47.077Z,93.03
2018-04-15T04:09:47.225Z,93.51
2018-04-15T04:10:47.377Z,93.41
2018-04-15T04:11:47.528Z,93.22
2018-04-15T04:12:47.676Z,92.46
2018-04-15T04:13:47.828Z,92.55
2018-04-15T04:14:47.976Z,92.36
2018-04-15T04:15:48.130Z,92.46
2018-04-15T04:16:48.282Z,92.18
2018-04-15T04:17:48.430Z,92.08
2018-04-15T04:18:48.582Z,91.99
2018-04-15T04:19:48.731Z,92.08
2018-04-15T04:20:48.880Z,91.79
2018-04-15T04:21:49.030Z,91.99
2018-04-15T04:22:49.182Z,92.27
2018-04-15T04:23:49.329Z,91.99
2018-04-15T04:24:49.479Z,91.22
2018-04-15T04:25:49.631Z,92.08
2018-04-15T04:26:49.781Z,92.36
2018-04-15T04:27:49.935Z,91.31
2018-04-15T04:28:50.086Z,91.99
2018-04-15T04:29:50.236Z,92.08
2018-04-15T04:30:50.388Z,93.13
2018-04-15T04:31:50.549Z,92.55
2018-04-15T04:32:50.690Z,93.41
2018-04-15T04:33:50.844Z,93.60
2018-04-15T04:34:50.992Z,93.13
2018-04-15T04:35:51.141Z,93.13
2018-04-15T04:36:51.287Z,93.22
2018-04-15T04:37:51.442Z,93.03
2018-04-15T04:38:51.591Z,92.55
2018-04-15T04:39:51.744Z,92.65
2018-04-15T04:40:51.898Z,92.65
2018-04-15T04:41:52.047Z,92.08
2018-04-15T04:42:52.197Z,92.08
2018-04-15T04:43:52.349Z,92.08
2018-04-15T04:44:52.495Z,92.74
2018-04-15T04:45:52.643Z,93.41
2018-04-15T04:46:52.793Z,93.70
2018-04-15T04:47:52.946Z,94.17
2018-04-15T04:48:53.096Z,93.79
2018-04-15T04:49:53.245Z,93.41
2018-04-15T04:50:53.401Z,93.18
2018-04-15T04:51:53.563Z,93.51
2018-04-15T04:52:53.699Z,93.51
2018-04-15T04:53:53.853Z,93.32
2018-04-15T04:54:54.003Z,93.13
2018-04-15T04:55:54.152Z,93.13
2018-04-15T04:56:54.304Z,93.41
2018-04-15T04:57:54.454Z,93.60
2018-04-15T04:58:54.608Z,93.41
2018-04-15T04:59:54.758Z,93.51
2018-04-15T05:00:54.910Z,93.41
2018-04-15T05:01:55.063Z,92.84
2018-04-15T05:02:55.213Z,92.84
2018-04-15T05:03:55.366Z,92.94
2018-04-15T05:04:55.517Z,93.32
2018-04-15T05:05:55.668Z,92.55
2018-04-15T05:06:55.820Z,92.13
2018-04-15T05:07:55.971Z,92.55
2018-04-15T05:08:56.122Z,92.94
2018-04-15T05:09:56.275Z,92.94
2018-04-15T05:10:56.427Z,93.41
2018-04-15T05:11:56.575Z,92.55
2018-04-15T05:12:56.723Z,92.65
2018-04-15T05:13:56.875Z,93.22
2018-04-15T05:14:57.025Z,93.13
2018-04-15T05:15:57.175Z,93.03
2018-04-15T05:16:57.323Z,93.22
2018-04-15T05:17:57.477Z,93.41
2018-04-15T05:18:57.626Z,93.60
2018-04-15T05:19:57.779Z,93.41
2018-04-15T05:20:57.929Z,93.60
2018-04-15T05:21:58.078Z,93.41
2018-04-15T05:22:58.229Z,93.22
2018-04-15T05:23:58.379Z,93.32
2018-04-15T05:24:58.533Z,93.32
2018-04-15T05:25:58.682Z,93.32
2018-04-15T05:26:58.835Z,93.51
2018-04-15T05:27:58.986Z,93.27
2018-04-15T05:28:59.138Z,93.17
2018-04-15T05:29:59.289Z,92.79
2018-04-15T05:30:59.441Z,92.41
2018-04-15T05:31:59.599Z,92.22
2018-04-15T05:32:59.747Z,91.27
2018-04-15T05:33:59.900Z,91.65
2018-04-15T05:35:00.052Z,91.74
2018-04-15T05:36:00.205Z,91.27
2018-04-15T05:37:00.351Z,91.65
2018-04-15T05:38:00.507Z,91.08
2018-04-15T05:39:00.655Z,91.03
2018-04-15T05:40:00.805Z,90.45
2018-04-15T05:41:00.956Z,90.74
2018-04-15T05:42:01.107Z,90.45
2018-04-15T05:43:01.260Z,90.45
2018-04-15T05:44:01.417Z,89.89
2018-04-15T05:45:01.581Z,90.08
2018-04-15T05:46:01.700Z,89.89
2018-04-15T05:47:01.849Z,90.08
2018-04-15T05:48:01.999Z,89.98
2018-04-15T05:49:02.149Z,89.79
2018-04-15T05:50:02.303Z,90.17
2018-04-15T05:51:02.454Z,89.79
2018-04-15T05:52:02.612Z,90.17
2018-04-15T05:53:02.755Z,89.79
2018-04-15T05:54:02.907Z,89.79
2018-04-15T05:55:03.060Z,89.79
2018-04-15T05:56:03.213Z,90.17
2018-04-15T05:57:03.363Z,90.64
2018-04-15T05:58:03.515Z,90.74
2018-04-15T05:59:03.667Z,90.84
2018-04-15T06:00:03.822Z,91.41
2018-04-15T06:01:03.971Z,91.88
2018-04-15T06:02:04.121Z,90.74
2018-04-15T06:03:04.270Z,90.55
2018-04-15T06:04:04.421Z,90.84
2018-04-15T06:05:04.573Z,91.13
2018-04-15T06:06:04.726Z,90.74
2018-04-15T06:07:04.879Z,90.55
2018-04-15T06:08:05.030Z,90.36
2018-04-15T06:09:05.183Z,90.17
2018-04-15T06:10:05.334Z,89.60
2018-04-15T06:11:05.487Z,89.79
2018-04-15T06:12:05.640Z,90.17
2018-04-15T06:13:05.789Z,90.64
2018-04-15T06:14:05.940Z,91.03
2018-04-15T06:15:06.091Z,90.93
2018-04-15T06:16:06.242Z,91.13
2018-04-15T06:17:06.396Z,90.41
2018-04-15T06:18:06.549Z,89.93
2018-04-15T06:19:06.700Z,89.93
2018-04-15T06:20:06.857Z,89.07
2018-04-15T06:21:06.997Z,89.83
2018-04-15T06:22:07.161Z,89.45
2018-04-15T06:23:07.306Z,89.45
2018-04-15T06:24:07.456Z,89.45
2018-04-15T06:25:07.610Z,89.64
2018-04-15T06:26:07.763Z,89.93
2018-04-15T06:27:07.917Z,89.45
2018-04-15T06:28:08.065Z,89.54
2018-04-15T06:29:08.216Z,89.07
2018-04-15T06:30:08.375Z,89.36
2018-04-15T06:31:08.521Z,89.07
2018-04-15T06:32:08.673Z,88.69
2018-04-15T06:33:08.826Z,88.31
2018-04-15T06:34:08.976Z,87.64
2018-04-15T06:35:09.132Z,86.82
2018-04-15T06:36:09.293Z,86.63
2018-04-15T06:37:09.439Z,85.97
2018-04-15T06:38:09.589Z,85.58
2018-04-15T06:39:09.744Z,85.49
2018-04-15T06:40:09.897Z,85.87
2018-04-15T06:41:10.050Z,86.06
2018-04-15T06:42:10.200Z,85.72
2018-04-15T06:43:10.353Z,86.20
2018-04-15T06:44:10.505Z,85.82
2018-04-15T06:45:10.656Z,85.34
2018-04-15T06:46:10.815Z,85.48
2018-04-15T06:47:10.963Z,84.10
2018-04-15T06:48:11.115Z,84.33
2018-04-15T06:49:11.277Z,84.52
2018-04-15T06:50:11.420Z,83.91
2018-04-15T06:51:11.573Z,84.23
2018-04-15T06:52:11.727Z,83.76
2018-04-15T06:53:11.879Z,84.05
2018-04-15T06:54:12.037Z,83.86
2018-04-15T06:55:12.186Z,83.76
2018-04-15T06:56:12.341Z,83.47
2018-04-15T06:57:12.494Z,83.09
2018-04-15T06:58:12.648Z,82.90
2018-04-15T06:59:12.802Z,83.76
2018-04-15T07:00:12.955Z,83.57
2018-04-15T07:01:13.107Z,83.86
2018-04-15T07:02:13.271Z,83.18
2018-04-15T07:03:13.422Z,83.67
2018-04-15T07:04:13.570Z,83.18
2018-04-15T07:05:13.727Z,83.09
2018-04-15T07:06:13.879Z,83.57
2018-04-15T07:07:14.034Z,83.00
2018-04-15T07:08:14.187Z,83.04
2018-04-15T07:09:14.338Z,82.56
2018-04-15T07:10:14.494Z,82.18
2018-04-15T07:11:14.647Z,81.85
2018-04-15T07:12:14.801Z,82.04
2018-04-15T07:13:14.956Z,82.65
2018-04-15T07:14:15.110Z,82.75
2018-04-15T07:15:15.275Z,82.56
2018-04-15T07:16:15.429Z,82.37
2018-04-15T07:17:15.586Z,83.09
2018-04-15T07:18:15.737Z,83.18
2018-04-15T07:19:15.893Z,82.90
2018-04-15T07:20:16.046Z,82.95
2018-04-15T07:21:16.201Z,83.53
2018-04-15T07:22:16.359Z,83.62
2018-04-15T07:23:16.508Z,83.81
2018-04-15T07:24:16.662Z,84.39
2018-04-15T07:25:16.817Z,84.77
2018-04-15T07:26:16.972Z,85.15
2018-04-15T07:27:17.128Z,85.25
2018-04-15T07:28:17.289Z,85.05
2018-04-15T07:29:17.437Z,84.43
2018-04-15T07:30:17.589Z,84.43
2018-04-15T07:31:17.742Z,84.81
2018-04-15T07:32:17.898Z,84.91
2018-04-15T07:33:18.050Z,84.23
2018-04-15T07:34:18.206Z,84.43
2018-04-15T07:35:18.358Z,84.33
2018-04-15T07:36:18.529Z,85.58
2018-04-15T07:37:18.666Z,85.29
2018-04-15T07:38:18.819Z,84.43
2018-04-15T07:39:18.971Z,84.23
2018-04-15T07:40:19.128Z,85.00
2018-04-15T07:41:19.280Z,84.72
2018-04-15T07:42:19.433Z,83.86
2018-04-15T07:43:19.603Z,83.67
2018-04-15T07:44:19.742Z,84.23
2018-04-15T07:45:19.895Z,84.14
2018-04-15T07:46:20.050Z,84.14
2018-04-15T07:47:20.207Z,83.86
2018-04-15T07:48:20.359Z,84.33
2018-04-15T07:49:20.513Z,83.04
2018-04-15T07:50:20.668Z,83.00
2018-04-15T07:51:20.821Z,82.75
2018-04-15T07:52:20.977Z,82.46
2018-04-15T07:53:21.127Z,82.46
2018-04-15T07:54:21.284Z,81.70
2018-04-15T07:55:21.441Z,81.99
2018-04-15T07:56:21.598Z,81.65
2018-04-15T07:57:21.751Z,81.07
2018-04-15T07:58:21.907Z,82.03
2018-04-15T07:59:22.068Z,81.41
2018-04-15T08:00:22.220Z,81.32
2018-04-15T08:01:22.376Z,81.36
2018-04-15T08:02:22.543Z,80.40
2018-04-15T08:03:22.691Z,80.40
2018-04-15T08:04:22.840Z,80.02
2018-04-15T08:05:22.995Z,78.87
2018-04-15T08:06:23.151Z,78.24
2018-04-15T08:07:23.306Z,77.95
2018-04-15T08:08:23.459Z,78.72
2018-04-15T08:09:23.614Z,78.14
2018-04-15T08:10:23.768Z,76.67
2018-04-15T08:11:23.923Z,77.34
2018-04-15T08:12:24.076Z,78.78
2018-04-15T08:13:24.229Z,78.68
2018-04-15T08:14:24.383Z,78.87
2018-04-15T08:15:24.533Z,79.35
2018-04-15T08:16:24.689Z,79.83
2018-04-15T08:17:24.843Z,79.93
2018-04-15T08:18:25.000Z,80.11
2018-04-15T08:19:25.153Z,78.87
2018-04-15T08:20:25.311Z,78.97
2018-04-15T08:21:25.462Z,79.64
2018-04-15T08:22:25.616Z,79.25
2018-04-15T08:23:25.768Z,78.78
2018-04-15T08:24:25.925Z,78.58
2018-04-15T08:25:26.077Z,78.53
2018-04-15T08:26:26.239Z,78.05
2018-04-15T08:27:26.388Z,77.63
2018-04-15T08:28:26.545Z,77.44
2018-04-15T08:29:26.699Z,77.53
2018-04-15T08:30:26.851Z,77.82
2018-04-15T08:31:27.015Z,77.67
2018-04-15T08:32:27.162Z,77.57
2018-04-15T08:33:27.315Z,77.48
2018-04-15T08:34:27.473Z,77.48
2018-04-15T08:35:27.625Z,77.19
2018-04-15T08:36:27.778Z,77.00
2018-04-15T08:37:27.934Z,76.27
2018-04-15T08:38:28.088Z,76.46
2018-04-15T08:39:28.245Z,76.37
2018-04-15T08:40:28.413Z,75.83
2018-04-15T08:41:28.565Z,74.84
2018-04-15T08:42:28.723Z,75.07
2018-04-15T08:43:28.879Z,73.82
2018-04-15T08:44:29.033Z,73.82
2018-04-15T08:45:29.187Z,73.34
2018-04-15T08:46:29.342Z,73.05
2018-04-15T08:47:29.498Z,72.90
2018-04-15T08:48:29.652Z,72.80
2018-04-15T08:49:29.810Z,72.23
2018-04-15T08:50:29.968Z,71.08
2018-04-15T08:51:30.124Z,72.52
2018-04-15T08:52:30.279Z,73.38
2018-04-15T08:53:30.432Z,72.80
2018-04-15T08:54:30.606Z,71.75
2018-04-15T08:55:30.740Z,71.17
2018-04-15T08:56:30.894Z,70.83
2018-04-15T08:57:31.055Z,71.46
2018-04-15T08:58:31.209Z,71.59
2018-04-15T08:59:31.364Z,71.50
2018-04-15T09:00:31.524Z,70.54
2018-04-15T09:01:31.683Z,70.31
2018-04-15T09:02:31.836Z,70.41
2018-04-15T09:03:31.991Z,72.29
2018-04-15T09:04:32.152Z,72.29
2018-04-15T09:05:32.311Z,72.06
2018-04-15T09:06:32.471Z,72.48
2018-04-15T09:07:32.626Z,73.44
2018-04-15T09:08:32.781Z,73.54
2018-04-15T09:09:32.939Z,72.09
2018-04-15T09:10:33.096Z,72.80
2018-04-15T09:11:33.249Z,71.14
2018-04-15T09:12:33.409Z,72.86
2018-04-15T09:13:33.563Z,72.86
2018-04-15T09:14:33.718Z,72.58
2018-04-15T09:15:33.891Z,73.34
2018-04-15T09:16:34.048Z,73.05
2018-04-15T09:17:34.207Z,73.63
2018-04-15T09:18:34.380Z,72.67
2018-04-15T09:19:34.546Z,72.23
2018-04-15T09:20:34.697Z,72.23
2018-04-15T09:21:34.858Z,71.46
2018-04-15T09:22:35.027Z,71.17
2018-04-15T09:23:35.210Z,70.70
2018-04-15T09:24:35.369Z,70.03
2018-04-15T09:25:35.536Z,69.58
2018-04-15T09:26:35.692Z,68.97
2018-04-15T09:27:35.855Z,67.76
2018-04-15T09:28:36.020Z,67.95
2018-04-15T09:29:36.197Z,67.09
2018-04-15T09:30:36.343Z,66.80
2018-04-15T09:31:36.499Z,67.18
2018-04-15T09:32:36.655Z,67.63
2018-04-15T09:33:36.810Z,67.72
2018-04-15T09:34:36.966Z,68.05
2018-04-15T09:35:37.169Z,67.54
2018-04-15T09:36:37.276Z,66.96
2018-04-15T09:37:37.430Z,66.58
2018-04-15T09:38:37.594Z,67.09
2018-04-15T09:39:37.754Z,67.09
2018-04-15T09:40:37.908Z,67.22
2018-04-15T09:41:38.062Z,65.30
2018-04-15T09:42:38.220Z,65.97
2018-04-15T09:43:38.415Z,65.88
2018-04-15T09:44:38.572Z,66.10
2018-04-15T09:45:38.737Z,64.56
2018-04-15T09:46:38.891Z,65.05
2018-04-15T09:47:39.046Z,63.64
2018-04-15T09:48:39.202Z,64.12
2018-04-15T09:49:39.358Z,64.09
2018-04-15T09:50:39.533Z,62.13
2018-04-15T09:51:39.689Z,63.76
2018-04-15T09:52:39.844Z,63.76
2018-04-15T09:53:39.999Z,64.15
2018-04-15T09:54:40.155Z,63.86
2018-04-15T09:55:40.311Z,64.53
2018-04-15T09:56:40.469Z,63.00
2018-04-15T09:57:40.627Z,64.37
2018-04-15T09:58:40.784Z,63.70
2018-04-15T09:59:40.977Z,62.26
2018-04-15T10:00:41.137Z,62.04
2018-04-15T10:01:41.290Z,62.93
2018-04-15T10:02:41.446Z,63.03
2018-04-15T10:03:41.599Z,62.65
2018-04-15T10:04:41.759Z,61.88
2018-04-15T10:05:41.918Z,62.07
2018-04-15T10:06:42.079Z,62.93
2018-04-15T10:07:42.236Z,61.69
2018-04-15T10:08:42.392Z,60.82
2018-04-15T10:09:42.548Z,61.11
2018-04-15T10:10:42.702Z,61.88
2018-04-15T10:11:42.859Z,60.63
2018-04-15T10:12:43.025Z,61.52
2018-04-15T10:13:43.186Z,62.55
2018-04-15T10:14:43.339Z,58.81
2018-04-15T10:15:43.499Z,58.81
2018-04-15T10:16:43.659Z,59.03
2018-04-15T10:17:43.814Z,59.00
2018-04-15T10:18:43.971Z,59.89
2018-04-15T10:19:44.125Z,60.75
2018-04-15T10:20:44.285Z,58.84
2018-04-15T10:21:44.441Z,58.14
2018-04-15T10:22:44.596Z,59.67
2018-04-15T10:23:44.752Z,60.66
2018-04-15T10:24:44.924Z,61.05
2018-04-15T10:25:45.080Z,60.28
2018-04-15T10:26:45.238Z,58.45
2018-04-15T10:27:45.396Z,60.18
2018-04-15T10:28:45.552Z,60.50
2018-04-15T10:29:45.727Z,59.44
2018-04-15T10:30:45.871Z,59.25
2018-04-15T10:31:46.030Z,58.99
2018-04-15T10:32:46.221Z,58.48
2018-04-15T10:33:46.350Z,58.87
2018-04-15T10:34:46.512Z,58.32
2018-04-15T10:35:46.699Z,56.76
2018-04-15T10:36:46.860Z,57.52
2018-04-15T10:37:47.016Z,58.58
2018-04-15T10:38:47.237Z,56.46
2018-04-15T10:39:47.346Z,55.63
2018-04-15T10:40:47.547Z,56.76
2018-04-15T10:41:47.755Z,56.85
2018-04-15T10:42:47.930Z,56.68
2018-04-15T10:43:48.090Z,56.30
2018-04-15T10:44:48.246Z,55.82
2018-04-15T10:45:48.423Z,56.98
2018-04-15T10:46:48.578Z,56.68
2018-04-15T10:47:48.736Z,57.45
2018-04-15T10:48:48.897Z,56.59
2018-04-15T10:49:49.052Z,55.44
2018-04-15T10:50:49.233Z,56.78
2018-04-15T10:51:49.398Z,56.30
2018-04-15T10:52:49.557Z,55.27
2018-04-15T10:53:49.711Z,54.99
2018-04-15T10:54:49.869Z,58.54
2018-04-15T10:55:50.024Z,55.34
2018-04-15T10:56:50.180Z,55.02
2018-04-15T10:57:50.341Z,55.15
2018-04-15T10:58:50.504Z,53.16
2018-04-15T10:59:50.664Z,51.33
2018-04-15T11:00:50.814Z,51.35
2018-04-15T11:01:50.976Z,48.85
2018-04-15T11:02:51.129Z,47.99
2018-04-15T11:03:51.285Z,48.93
2018-04-15T11:04:51.446Z,50.01
2018-04-15T11:05:51.604Z,50.49
2018-04-15T11:06:51.776Z,50.30
2018-04-15T11:07:51.935Z,50.61
2018-04-15T11:08:52.092Z,49.36
2018-04-15T11:09:52.249Z,46.57
2018-04-15T11:10:52.409Z,46.36
2018-04-15T11:11:52.566Z,47.99
2018-04-15T11:12:52.724Z,47.30
2018-04-15T11:13:52.906Z,47.97
2018-04-15T11:14:53.047Z,48.47
2018-04-15T11:15:53.201Z,48.38
2018-04-15T11:16:53.361Z,47.92
2018-04-15T11:17:53.518Z,47.05
2018-04-15T11:18:53.680Z,49.07
2018-04-15T11:19:53.889Z,48.88
2018-04-15T11:20:54.048Z,48.08
2018-04-15T11:21:54.205Z,47.24
2018-04-15T11:22:54.365Z,46.38
2018-04-15T11:23:54.528Z,48.30
2018-04-15T11:24:54.693Z,47.44
2018-04-15T11:25:54.851Z,46.40
2018-04-15T11:26:55.009Z,45.92
2018-04-15T11:27:55.171Z,45.34
2018-04-15T11:28:55.402Z,46.42
2018-04-15T11:29:55.537Z,45.36
2018-04-15T11:30:55.696Z,45.25
2018-04-15T11:31:55.855Z,46.50
2018-04-15T11:32:56.017Z,48.13
2018-04-15T11:33:56.179Z,47.75
2018-04-15T11:34:56.344Z,47.85
2018-04-15T11:35:56.509Z,46.88
2018-04-15T11:36:56.669Z,49.19
2018-04-15T11:37:56.829Z,49.10
2018-04-15T11:38:56.983Z,45.99
2018-04-15T11:39:57.146Z,45.83
2018-04-15T11:40:57.305Z,47.34
2018-04-15T11:41:57.465Z,48.30
2018-04-15T11:42:57.630Z,49.91
2018-04-15T11:43:57.787Z,50.23
2018-04-15T11:44:57.944Z,51.26
2018-04-15T11:45:58.103Z,49.82
2018-04-15T11:46:58.260Z,49.33
2018-04-15T11:47:58.420Z,50.40
2018-04-15T11:48:58.581Z,51.26
2018-04-15T11:49:58.739Z,51.26
2018-04-15T11:50:58.899Z,50.59
2018-04-15T11:51:59.060Z,50.40
2018-04-15T11:52:59.232Z,49.72
2018-04-15T11:53:59.395Z,49.33
2018-04-15T11:54:59.550Z,48.93
2018-04-15T11:55:59.709Z,50.37
2018-04-15T11:56:59.870Z,49.33
2018-04-15T11:58:00.034Z,49.53
2018-04-15T11:59:00.189Z,51.55
2018-04-15T12:00:00.347Z,52.29
2018-04-15T12:01:00.506Z,52.20
2018-04-15T12:02:00.665Z,50.97
2018-04-15T12:03:00.829Z,51.17
2018-04-15T12:04:00.987Z,51.45
2018-04-15T12:05:01.147Z,50.40
2018-04-15T12:06:01.307Z,50.30
2018-04-15T12:07:01.467Z,50.59
2018-04-15T12:08:01.672Z,47.99
2018-04-15T12:09:01.786Z,48.21
2018-04-15T12:10:01.947Z,48.40
2018-04-15T12:11:02.108Z,49.00
2018-04-15T12:12:02.267Z,47.56
2018-04-15T12:13:02.428Z,46.78
2018-04-15T12:14:02.586Z,46.33
2018-04-15T12:15:02.744Z,45.36
2018-04-15T12:16:02.905Z,45.29
2018-04-15T12:17:03.065Z,45.10
2018-04-15T12:18:03.225Z,44.73
2018-04-15T12:19:03.384Z,44.90
2018-04-15T12:20:03.553Z,43.85
2018-04-15T12:21:03.714Z,42.28
2018-04-15T12:22:03.880Z,43.05
2018-04-15T12:23:04.053Z,44.89
2018-04-15T12:24:04.216Z,44.49
2018-04-15T12:25:04.377Z,46.91
2018-04-15T12:26:04.535Z,44.57
2018-04-15T12:27:04.692Z,44.86
2018-04-15T12:28:04.855Z,43.01
2018-04-15T12:29:05.018Z,43.03
2018-04-15T12:30:05.179Z,44.57
2018-04-15T12:31:05.339Z,44.21
2018-04-15T12:32:05.496Z,46.23
2018-04-15T12:33:05.661Z,43.05
2018-04-15T12:34:05.818Z,43.15
2018-04-15T12:35:05.978Z,42.19
2018-04-15T12:36:06.136Z,42.55
2018-04-15T12:37:06.303Z,43.80
2018-04-15T12:38:06.464Z,43.90
2018-04-15T12:39:06.622Z,43.03
2018-04-15T12:40:06.783Z,43.24
2018-04-15T12:41:06.942Z,44.40
2018-04-15T12:42:07.100Z,44.40
2018-04-15T12:43:07.266Z,46.11
2018-04-15T12:44:07.425Z,45.07
2018-04-15T12:45:07.590Z,43.23
2018-04-15T12:46:07.741Z,43.90
2018-04-15T12:47:07.898Z,45.15
2018-04-15T12:48:08.059Z,44.45
2018-04-15T12:49:08.219Z,45.05
2018-04-15T12:50:08.379Z,45.34
2018-04-15T12:51:08.538Z,44.96
2018-04-15T12:52:08.699Z,45.05
2018-04-15T12:53:08.857Z,44.79
2018-04-15T12:54:09.018Z,44.59